createdAt,value
2022-08-26T00:01:49.418Z,19.80
2022-08-26T00:06:07.477Z,21.58
2022-08-26T00:14:43.122Z,20.40
2022-08-26T00:19:02.718Z,21.08
2022-08-26T00:23:20.371Z,21.83
2022-08-26T00:27:41.560Z,21.52
2022-08-26T00:32:02.757Z,22.23
2022-08-26T00:36:21.402Z,24.60
2022-08-26T00:40:45.635Z,20.25
2022-08-26T00:45:03.527Z,22.58
2022-08-26T00:49:38.602Z,23.42
2022-08-26T00:53:59.132Z,25.90
2022-08-26T00:58:18.235Z,27.13
2022-08-26T01:02:35.749Z,26.67
2022-08-26T01:06:54.962Z,24.40
2022-08-26T01:11:12.844Z,23.35
2022-08-26T01:15:34.227Z,24.38
2022-08-26T01:19:59.569Z,23.15
2022-08-26T01:24:18.945Z,23.60
2022-08-26T01:28:38.177Z,25.70
2022-08-26T01:32:57.826Z,29.15
2022-08-26T01:37:27.554Z,28.60
2022-08-26T01:41:45.523Z,25.80
2022-08-26T01:46:03.278Z,25.40
2022-08-26T01:50:30.674Z,25.98
2022-08-26T01:54:50.580Z,24.60
2022-08-26T01:59:13.534Z,27.75
2022-08-26T02:03:31.198Z,26.23
2022-08-26T02:07:50.763Z,30.05
2022-08-26T02:12:10.370Z,29.05
2022-08-26T02:16:31.435Z,27.65
2022-08-26T02:20:51.548Z,29.15
2022-08-26T02:25:24.925Z,31.63
2022-08-26T02:29:45.553Z,28.08
2022-08-26T02:34:15.403Z,30.33
2022-08-26T02:38:32.660Z,29.67
2022-08-26T02:42:53.126Z,27.40
2022-08-26T02:47:14.058Z,29.20
2022-08-26T02:51:31.639Z,27.35
2022-08-26T02:55:50.644Z,26.45
2022-08-26T03:00:10.862Z,32.97
2022-08-26T03:04:28.585Z,34.45
2022-08-26T03:08:50.755Z,31.58
2022-08-26T03:13:08.944Z,28.92
2022-08-26T03:17:26.827Z,31.40
2022-08-26T03:21:44.370Z,32.50
2022-08-26T03:26:05.527Z,31.67
2022-08-26T03:30:44.824Z,34.35
2022-08-26T03:39:19.896Z,31.40
2022-08-26T03:43:37.220Z,36.67
2022-08-26T03:47:54.738Z,36.03
2022-08-26T03:52:15.019Z,34.22
2022-08-26T03:56:33.420Z,29.95
2022-08-26T04:00:55.452Z,31.80
2022-08-26T04:05:16.588Z,32.47
2022-08-26T04:09:35.241Z,32.95
2022-08-26T04:13:52.676Z,30.13
2022-08-26T04:18:10.657Z,30.08
2022-08-26T04:22:27.885Z,29.95
2022-08-26T04:26:46.581Z,32.20
2022-08-26T04:31:04.081Z,31.98
2022-08-26T04:35:25.769Z,36.10
2022-08-26T04:39:43.457Z,39.53
2022-08-26T04:44:03.337Z,31.93
2022-08-26T04:48:20.606Z,29.85
2022-08-26T04:52:38.371Z,31.15
2022-08-26T04:56:55.779Z,33.05
2022-08-26T05:01:13.609Z,33.67
2022-08-26T05:05:32.009Z,30.83
2022-08-26T05:09:49.345Z,30.30
2022-08-26T05:14:07.393Z,25.92
2022-08-26T05:18:25.850Z,30.02
2022-08-26T05:22:43.253Z,28.67
2022-08-26T05:27:00.428Z,27.58
2022-08-26T05:31:20.547Z,30.00
2022-08-26T05:35:39.028Z,28.10
2022-08-26T05:39:56.733Z,30.30
2022-08-26T05:44:16.343Z,33.42
2022-08-26T05:48:33.894Z,31.52
2022-08-26T05:52:51.474Z,31.58
2022-08-26T05:57:08.665Z,29.83
2022-08-26T06:01:27.834Z,30.90
2022-08-26T06:05:45.050Z,29.25
2022-08-26T06:10:28.603Z,30.45
2022-08-26T06:14:39.840Z,29.95
2022-08-26T06:18:57.615Z,27.67
2022-08-26T06:23:35.514Z,27.08
2022-08-26T06:27:52.797Z,28.00
2022-08-26T06:32:10.034Z,27.40
2022-08-26T06:36:30.604Z,23.25
2022-08-26T06:40:50.509Z,23.70
2022-08-26T06:45:08.342Z,21.48
2022-08-26T06:49:26.542Z,20.00
2022-08-26T06:53:47.366Z,21.65
2022-08-26T06:58:06.330Z,20.30
2022-08-26T07:02:23.548Z,19.67
2022-08-26T07:06:50.260Z,19.35
2022-08-26T07:11:11.273Z,19.77
2022-08-26T07:15:31.208Z,19.77
2022-08-26T07:19:49.045Z,19.35
2022-08-26T07:24:06.516Z,18.05
2022-08-26T07:28:23.813Z,17.05
2022-08-26T07:32:42.907Z,16.48
2022-08-26T07:37:00.497Z,16.80
2022-08-26T07:41:21.415Z,15.93
2022-08-26T07:45:38.787Z,15.77
2022-08-26T07:49:57.335Z,15.07
2022-08-26T07:54:14.549Z,14.85
2022-08-26T07:58:31.903Z,14.43
2022-08-26T08:02:49.744Z,13.48
2022-08-26T08:07:11.407Z,12.82
2022-08-26T08:11:31.035Z,12.48
2022-08-26T08:15:48.222Z,12.38
2022-08-26T08:20:08.740Z,13.00
2022-08-26T08:24:25.945Z,11.80
2022-08-26T08:28:43.219Z,10.38
2022-08-26T08:33:02.194Z,10.85
2022-08-26T08:41:56.596Z,10.13
2022-08-26T08:46:17.265Z,10.63
2022-08-26T08:50:42.542Z,10.98
2022-08-26T08:55:01.603Z,9.45
2022-08-26T08:59:34.175Z,10.45
2022-08-26T09:04:13.359Z,9.73
2022-08-26T09:08:36.936Z,10.18
2022-08-26T09:12:54.327Z,9.77
2022-08-26T09:17:39.557Z,10.50
2022-08-26T09:22:00.424Z,10.60
2022-08-26T09:26:20.010Z,10.02
2022-08-26T09:30:37.434Z,9.55
2022-08-26T09:35:02.245Z,10.65
2022-08-26T09:39:33.624Z,9.63
2022-08-26T09:44:14.712Z,9.80
2022-08-26T09:48:36.505Z,11.80
2022-08-26T09:53:25.164Z,10.48
2022-08-26T09:57:58.212Z,10.60
2022-08-26T10:02:34.633Z,10.57
2022-08-26T10:06:59.851Z,11.20
2022-08-26T10:11:26.210Z,10.70
2022-08-26T10:15:50.692Z,11.23
2022-08-26T10:20:23.243Z,11.52
2022-08-26T10:24:48.289Z,12.68
2022-08-26T10:29:19.835Z,12.05
2022-08-26T10:33:38.653Z,12.15
2022-08-26T10:38:00.750Z,12.52
2022-08-26T10:42:38.783Z,11.30
2022-08-26T10:47:05.827Z,11.60
2022-08-26T10:51:35.435Z,11.63
2022-08-26T10:56:32.023Z,10.85
2022-08-26T11:01:22.857Z,11.73
2022-08-26T11:05:40.437Z,11.10
2022-08-26T11:09:59.416Z,10.50
2022-08-26T11:14:28.968Z,10.27
2022-08-26T11:18:48.709Z,9.82
2022-08-26T11:23:23.499Z,8.90
2022-08-26T11:27:41.530Z,9.55
2022-08-26T11:31:58.807Z,8.68
2022-08-26T11:36:45.796Z,5.32
2022-08-26T11:41:11.859Z,5.43
2022-08-26T11:45:42.397Z,5.70
2022-08-26T11:50:27.604Z,5.72
2022-08-26T11:55:07.825Z,5.95
2022-08-26T12:03:54.232Z,6.72
2022-08-26T12:08:19.393Z,5.90
2022-08-26T12:12:38.699Z,8.40
2022-08-26T12:17:10.030Z,7.25
2022-08-26T12:21:32.818Z,6.47
2022-08-26T12:25:54.844Z,10.18
2022-08-26T12:30:21.988Z,8.68
2022-08-26T12:34:44.077Z,11.77
2022-08-26T12:39:13.754Z,8.40
2022-08-26T12:43:45.795Z,7.53
2022-08-26T12:48:12.214Z,6.85
2022-08-26T12:52:32.554Z,7.13
2022-08-26T12:56:49.826Z,7.88
2022-08-26T13:01:09.414Z,8.05
2022-08-26T13:05:33.097Z,8.75
2022-08-26T13:09:55.998Z,8.52
2022-08-26T13:14:23.899Z,8.63
2022-08-26T13:18:41.701Z,8.73
2022-08-26T13:22:59.487Z,8.82
2022-08-26T13:27:20.452Z,8.15
2022-08-26T13:31:40.508Z,8.70
2022-08-26T13:35:58.397Z,8.50
2022-08-26T13:40:15.791Z,8.00
2022-08-26T13:44:33.426Z,7.60
2022-08-26T13:48:50.611Z,7.75
2022-08-26T13:53:07.844Z,7.35
2022-08-26T13:57:27.831Z,7.47
2022-08-26T14:01:45.068Z,7.40
2022-08-26T14:06:02.877Z,7.70
2022-08-26T14:10:20.549Z,7.22
2022-08-26T14:14:39.042Z,8.55
2022-08-26T14:18:56.229Z,7.60
2022-08-26T14:23:14.457Z,8.85
2022-08-26T14:27:31.821Z,9.32
2022-08-26T14:31:49.134Z,8.00
2022-08-26T14:36:25.639Z,7.68
2022-08-26T14:40:44.889Z,8.13
2022-08-26T14:45:04.919Z,7.90
2022-08-26T14:49:24.210Z,8.02
2022-08-26T14:54:00.411Z,8.57
2022-08-26T14:58:17.584Z,8.15
2022-08-26T15:02:34.879Z,7.63
2022-08-26T15:06:56.703Z,7.95
2022-08-26T15:11:13.909Z,6.85
2022-08-26T15:15:31.260Z,6.47
2022-08-26T15:19:48.535Z,5.70
2022-08-26T15:24:05.871Z,6.18
2022-08-26T15:28:23.263Z,6.00
2022-08-26T15:32:40.715Z,5.40
2022-08-26T15:36:58.049Z,5.25
2022-08-26T15:41:15.198Z,4.95
2022-08-26T15:45:33.341Z,5.22
2022-08-26T15:49:50.586Z,5.10
2022-08-26T15:54:10.294Z,5.80
2022-08-26T15:58:28.754Z,5.45
2022-08-26T16:02:46.333Z,5.78
2022-08-26T16:07:04.514Z,5.65
2022-08-26T16:11:22.570Z,6.57
2022-08-26T16:15:40.092Z,6.10
2022-08-26T16:19:57.482Z,7.00
2022-08-26T16:24:14.982Z,6.60
2022-08-26T16:28:32.210Z,7.07
2022-08-26T16:32:49.795Z,7.60
2022-08-26T16:37:07.201Z,7.15
2022-08-26T16:41:26.470Z,7.88
2022-08-26T16:45:43.681Z,7.28
2022-08-26T16:50:00.933Z,7.63
2022-08-26T16:54:18.156Z,9.05
2022-08-26T16:58:35.402Z,8.05
2022-08-26T17:02:52.667Z,9.32
2022-08-26T17:07:09.945Z,9.10
2022-08-26T17:11:27.217Z,8.98
2022-08-26T17:15:54.060Z,9.63
2022-08-26T17:20:17.512Z,9.88
2022-08-26T17:24:34.858Z,9.95
2022-08-26T17:28:52.720Z,10.57
2022-08-26T17:33:10.857Z,9.45
2022-08-26T17:37:28.557Z,10.20
2022-08-26T17:41:45.922Z,10.73
2022-08-26T17:46:07.088Z,10.43
2022-08-26T17:50:24.821Z,11.05
2022-08-26T17:54:43.330Z,10.48
2022-08-26T18:03:20.765Z,12.85
2022-08-26T18:07:43.877Z,11.07
2022-08-26T18:12:02.215Z,13.35
2022-08-26T18:16:19.936Z,15.57
2022-08-26T18:20:39.177Z,15.60
2022-08-26T18:24:59.071Z,16.42
2022-08-26T18:29:18.773Z,16.15
2022-08-26T18:33:36.001Z,15.75
2022-08-26T18:37:53.311Z,14.55
2022-08-26T18:42:10.568Z,15.18
2022-08-26T18:46:28.471Z,14.10
2022-08-26T18:50:47.420Z,14.68
2022-08-26T18:55:05.376Z,16.70
2022-08-26T18:59:29.604Z,13.75
2022-08-26T19:03:48.119Z,14.75
2022-08-26T19:08:05.568Z,14.52
2022-08-26T19:12:23.048Z,15.50
2022-08-26T19:16:47.174Z,16.17
2022-08-26T19:21:04.415Z,15.82
2022-08-26T19:25:21.596Z,16.65
2022-08-26T19:29:38.807Z,16.67
2022-08-26T19:33:57.951Z,15.68
2022-08-26T19:38:15.548Z,16.15
2022-08-26T19:42:32.788Z,16.88
2022-08-26T19:46:50.011Z,15.18
2022-08-26T19:51:07.496Z,14.90
2022-08-26T19:55:26.140Z,14.93
2022-08-26T19:59:43.523Z,14.80
2022-08-26T20:04:00.928Z,15.85
2022-08-26T20:08:22.704Z,16.98
2022-08-26T20:12:41.638Z,15.60
2022-08-26T20:21:29.574Z,14.75
2022-08-26T20:25:47.434Z,14.05
2022-08-26T20:30:07.455Z,13.85
2022-08-26T20:34:26.269Z,13.73
2022-08-26T20:38:43.664Z,12.70
2022-08-26T20:43:00.989Z,12.27
2022-08-26T20:47:19.173Z,13.75
2022-08-26T20:51:37.390Z,13.70
2022-08-26T20:55:59.127Z,11.98
2022-08-26T21:00:18.138Z,11.32
2022-08-26T21:04:37.295Z,11.52
2022-08-26T21:08:54.749Z,10.30
2022-08-26T21:13:12.693Z,10.60
2022-08-26T21:17:29.990Z,9.85
2022-08-26T21:21:49.347Z,10.40
2022-08-26T21:26:10.703Z,9.77
2022-08-26T21:30:28.081Z,10.27
2022-08-26T21:34:45.295Z,10.15
2022-08-26T21:39:02.514Z,12.90
2022-08-26T21:43:34.789Z,16.63
2022-08-26T21:47:52.783Z,18.20
2022-08-26T21:52:11.054Z,20.40
2022-08-26T21:56:31.505Z,24.57
2022-08-26T22:00:50.489Z,31.35
2022-08-26T22:05:08.072Z,32.80
2022-08-26T22:09:27.679Z,28.88
2022-08-26T22:13:45.621Z,33.72
2022-08-26T22:18:06.089Z,34.75
2022-08-26T22:22:23.313Z,43.55
2022-08-26T22:26:40.540Z,40.55
2022-08-26T22:30:57.849Z,33.95
2022-08-26T22:35:28.015Z,44.13
2022-08-26T22:39:46.609Z,41.25
2022-08-26T22:44:04.467Z,52.58
2022-08-26T22:48:26.911Z,38.33
2022-08-26T22:52:44.083Z,36.40
2022-08-26T22:57:02.188Z,28.52
2022-08-26T23:01:19.462Z,32.33
2022-08-26T23:05:38.640Z,34.22
2022-08-26T23:09:55.952Z,33.00
2022-08-26T23:14:13.179Z,32.72
2022-08-26T23:18:30.525Z,38.30
2022-08-26T23:22:47.725Z,33.90
2022-08-26T23:27:05.038Z,34.10
2022-08-26T23:31:22.376Z,42.90
2022-08-26T23:35:40.446Z,43.17
2022-08-26T23:44:16.678Z,29.25
2022-08-26T23:48:33.826Z,29.88
2022-08-26T23:53:06.317Z,32.15
2022-08-26T23:57:25.143Z,31.27
